createdAt,value
2019-01-24T00:04:19.331Z,1.40
2019-01-24T00:09:23.953Z,1.40
2019-01-24T00:14:28.551Z,1.40
2019-01-24T00:19:33.192Z,1.40
2019-01-24T00:24:37.794Z,1.40
2019-01-24T00:29:42.500Z,1.40
2019-01-24T00:34:48.023Z,1.40
2019-01-24T00:39:52.664Z,1.40
2019-01-24T00:44:57.402Z,1.30
2019-01-24T00:50:02.012Z,1.20
2019-01-24T00:55:08.858Z,1.20
2019-01-24T01:00:19.140Z,1.20
2019-01-24T01:05:24.020Z,1.20
2019-01-24T01:10:28.604Z,1.20
2019-01-24T01:15:33.209Z,1.20
2019-01-24T01:20:37.721Z,1.20
2019-01-24T01:25:42.481Z,1.20
2019-01-24T01:30:46.995Z,1.20
2019-01-24T01:35:51.577Z,1.10
2019-01-24T01:40:56.154Z,1.10
2019-01-24T01:46:00.797Z,1.10
2019-01-24T01:51:05.432Z,1.10
2019-01-24T01:56:10.037Z,1.00
2019-01-24T02:01:14.639Z,1.00
2019-01-24T02:06:19.206Z,1.00
2019-01-24T02:11:24.292Z,1.00
2019-01-24T02:16:28.893Z,1.00
2019-01-24T02:21:33.984Z,0.90
2019-01-24T02:26:38.578Z,0.90
2019-01-24T02:31:43.169Z,0.90
2019-01-24T02:36:47.757Z,0.80
2019-01-24T02:41:52.373Z,0.80
2019-01-24T02:46:56.962Z,0.70
2019-01-24T02:52:01.491Z,0.70
2019-01-24T02:57:06.138Z,0.60
2019-01-24T03:02:10.698Z,0.60
2019-01-24T03:07:15.480Z,0.60
2019-01-24T03:12:20.035Z,0.50
2019-01-24T03:17:24.610Z,0.40
2019-01-24T03:22:29.197Z,0.50
2019-01-24T03:27:33.741Z,0.40
2019-01-24T03:32:38.322Z,0.40
2019-01-24T03:37:42.919Z,0.40
2019-01-24T03:42:47.522Z,0.40
2019-01-24T03:47:52.078Z,0.40
2019-01-24T03:52:57.162Z,0.50
2019-01-24T03:58:01.759Z,0.50
2019-01-24T04:03:06.372Z,0.50
2019-01-24T04:08:10.973Z,0.60
2019-01-24T04:13:15.580Z,0.60
2019-01-24T04:18:20.165Z,0.60
2019-01-24T04:23:24.690Z,0.60
2019-01-24T04:28:29.293Z,0.60
2019-01-24T04:33:33.880Z,0.60
2019-01-24T04:38:38.605Z,0.60
2019-01-24T04:43:43.198Z,0.60
2019-01-24T04:48:47.790Z,0.60
2019-01-24T04:53:52.377Z,0.60
2019-01-24T04:58:56.983Z,0.60
2019-01-24T05:04:01.585Z,0.40
2019-01-24T05:09:08.096Z,0.40
2019-01-24T05:14:12.705Z,0.40
2019-01-24T05:19:17.205Z,0.50
2019-01-24T05:24:21.824Z,0.40
2019-01-24T05:29:26.502Z,0.50
2019-01-24T05:34:31.095Z,0.50
2019-01-24T05:39:35.662Z,0.50
2019-01-24T05:44:40.244Z,0.60
2019-01-24T05:49:44.796Z,0.60
2019-01-24T05:54:49.449Z,0.60
2019-01-24T05:59:53.948Z,0.50
2019-01-24T06:04:58.468Z,0.50
2019-01-24T06:10:02.966Z,0.40
2019-01-24T06:15:09.899Z,0.50
2019-01-24T06:20:14.576Z,0.50
2019-01-24T06:25:19.108Z,0.50
2019-01-24T06:30:24.140Z,0.50
2019-01-24T06:35:28.785Z,0.50
2019-01-24T06:40:33.547Z,0.50
2019-01-24T06:45:38.154Z,0.50
2019-01-24T06:50:42.782Z,0.50
2019-01-24T06:55:47.406Z,0.50
2019-01-24T07:00:51.963Z,0.50
2019-01-24T07:05:56.481Z,0.50
2019-01-24T07:11:01.250Z,0.60
2019-01-24T07:16:06.022Z,0.60
2019-01-24T07:21:10.591Z,0.70
2019-01-24T07:26:15.202Z,0.70
2019-01-24T07:31:19.813Z,0.70
2019-01-24T07:36:24.550Z,0.70
2019-01-24T07:41:29.124Z,0.70
2019-01-24T07:46:33.648Z,0.70
2019-01-24T07:51:38.225Z,0.70
2019-01-24T07:56:42.860Z,0.70
2019-01-24T08:01:47.444Z,0.70
2019-01-24T08:06:52.085Z,0.90
2019-01-24T08:11:56.684Z,0.90
2019-01-24T08:17:01.406Z,0.90
2019-01-24T08:22:05.989Z,1.10
2019-01-24T08:27:10.591Z,1.00
2019-01-24T08:32:15.191Z,1.00
2019-01-24T08:37:19.903Z,1.10
2019-01-24T08:42:24.505Z,1.00
2019-01-24T08:47:29.117Z,0.90
2019-01-24T08:52:33.731Z,1.00
2019-01-24T08:57:38.260Z,1.00
2019-01-24T09:02:42.870Z,1.10
2019-01-24T09:07:47.487Z,1.20
2019-01-24T09:12:52.146Z,1.20
2019-01-24T09:17:56.843Z,1.30
2019-01-24T09:23:01.430Z,1.40
2019-01-24T09:28:06.218Z,1.40
2019-01-24T09:33:10.891Z,1.40
2019-01-24T09:38:15.478Z,1.50
2019-01-24T09:43:20.023Z,1.60
2019-01-24T09:48:24.662Z,1.60
2019-01-24T09:53:29.277Z,1.60
2019-01-24T09:58:33.882Z,1.70
2019-01-24T10:03:38.513Z,1.70
2019-01-24T10:08:43.087Z,1.70
2019-01-24T10:13:47.705Z,1.80
2019-01-24T10:18:52.331Z,1.80
2019-01-24T10:23:56.980Z,1.90
2019-01-24T10:29:01.563Z,1.90
2019-01-24T10:34:06.497Z,1.90
2019-01-24T10:39:11.192Z,2.00
2019-01-24T10:44:15.810Z,2.20
2019-01-24T10:49:21.396Z,2.30
2019-01-24T10:54:26.022Z,2.30
2019-01-24T10:59:30.604Z,2.30
2019-01-24T11:04:35.141Z,2.40
2019-01-24T11:09:39.808Z,2.40
2019-01-24T11:14:44.531Z,2.30
2019-01-24T11:19:49.159Z,2.30
2019-01-24T11:24:53.760Z,2.30
2019-01-24T11:29:58.360Z,2.30
2019-01-24T11:35:03.021Z,2.40
2019-01-24T11:40:09.117Z,2.40
2019-01-24T11:45:14.205Z,2.40
2019-01-24T11:50:19.453Z,2.40
2019-01-24T11:55:24.200Z,2.40
2019-01-24T12:00:33.425Z,2.40
2019-01-24T12:05:38.030Z,2.40
2019-01-24T12:10:42.943Z,2.50
2019-01-24T12:15:47.614Z,2.50
2019-01-24T12:20:52.258Z,2.60
2019-01-24T12:25:56.869Z,2.60
2019-01-24T12:31:01.386Z,2.60
2019-01-24T12:36:06.040Z,2.60
2019-01-24T12:41:10.638Z,2.70
2019-01-24T12:46:15.262Z,2.70
2019-01-24T12:51:20.080Z,2.70
2019-01-24T12:56:24.669Z,2.70
2019-01-24T13:01:29.362Z,2.80
2019-01-24T13:06:33.994Z,2.80
2019-01-24T13:11:38.592Z,2.80
2019-01-24T13:16:43.188Z,2.90
2019-01-24T13:21:47.811Z,2.90
2019-01-24T13:26:52.469Z,3.00
2019-01-24T13:31:57.071Z,3.00
2019-01-24T13:37:01.686Z,3.00
2019-01-24T13:42:06.277Z,3.10
2019-01-24T13:47:10.926Z,3.10
2019-01-24T13:52:15.579Z,3.10
2019-01-24T13:57:20.164Z,3.20
2019-01-24T14:02:24.747Z,3.20
2019-01-24T14:07:33.121Z,3.20
2019-01-24T14:12:35.626Z,3.30
2019-01-24T14:17:40.212Z,3.30
2019-01-24T14:22:44.998Z,3.30
2019-01-24T14:27:49.635Z,3.30
2019-01-24T14:32:54.352Z,3.30
2019-01-24T14:37:58.993Z,3.30
2019-01-24T14:43:03.652Z,3.30
2019-01-24T14:48:08.584Z,3.30
2019-01-24T14:53:13.305Z,3.30
2019-01-24T14:58:17.999Z,3.30
2019-01-24T15:03:22.638Z,3.40
2019-01-24T15:08:27.268Z,3.40
2019-01-24T15:13:31.856Z,3.40
2019-01-24T15:18:36.548Z,3.50
2019-01-24T15:23:41.224Z,3.50
2019-01-24T15:28:45.827Z,3.50
2019-01-24T15:33:50.459Z,3.50
2019-01-24T15:38:55.070Z,3.60
2019-01-24T15:43:59.695Z,3.60
2019-01-24T15:49:04.399Z,3.60
2019-01-24T15:54:09.095Z,3.60
2019-01-24T15:59:13.703Z,3.60
2019-01-24T16:04:19.835Z,3.60
2019-01-24T16:09:24.677Z,3.60
2019-01-24T16:14:29.303Z,3.60
2019-01-24T16:19:33.948Z,3.60
2019-01-24T16:24:38.624Z,3.60
2019-01-24T16:29:43.264Z,3.60
2019-01-24T16:34:47.785Z,3.70
2019-01-24T16:39:52.392Z,3.70
2019-01-24T16:44:57.055Z,3.70
2019-01-24T16:50:01.771Z,3.70
2019-01-24T16:55:08.352Z,3.70
2019-01-24T17:00:48.393Z,3.80
2019-01-24T17:05:53.196Z,3.80
2019-01-24T17:10:57.740Z,3.80
2019-01-24T17:16:02.490Z,3.70
2019-01-24T17:21:07.147Z,3.60
2019-01-24T17:26:11.863Z,3.60
2019-01-24T17:31:16.473Z,3.50
2019-01-24T17:36:21.174Z,3.50
2019-01-24T17:41:25.832Z,3.50
2019-01-24T17:46:30.487Z,3.50
2019-01-24T17:51:35.409Z,3.50
2019-01-24T17:56:40.049Z,3.50
2019-01-24T18:01:44.632Z,3.50
2019-01-24T18:06:49.433Z,3.60
2019-01-24T18:11:53.983Z,3.60
2019-01-24T18:16:58.696Z,3.60
2019-01-24T18:22:03.607Z,3.70
2019-01-24T18:27:08.313Z,3.60
2019-01-24T18:32:12.922Z,3.70
2019-01-24T18:37:17.848Z,3.80
2019-01-24T18:42:22.478Z,3.80
2019-01-24T18:47:27.173Z,3.80
2019-01-24T18:52:31.757Z,3.80
2019-01-24T18:57:36.407Z,3.90
2019-01-24T19:02:41.013Z,3.90
2019-01-24T19:07:45.649Z,3.90
2019-01-24T19:12:50.345Z,3.90
2019-01-24T19:17:54.970Z,3.90
2019-01-24T19:22:59.624Z,4.00
2019-01-24T19:28:04.546Z,4.10
2019-01-24T19:33:09.192Z,4.00
2019-01-24T19:38:13.859Z,4.00
2019-01-24T19:43:18.458Z,4.00
2019-01-24T19:48:23.126Z,4.10
2019-01-24T19:53:27.792Z,4.00
2019-01-24T19:58:32.447Z,4.00
2019-01-24T20:03:37.119Z,4.00
2019-01-24T20:08:41.778Z,4.00
2019-01-24T20:13:46.478Z,4.00
2019-01-24T20:18:52.182Z,4.00
2019-01-24T20:23:56.817Z,4.00
2019-01-24T20:29:01.534Z,4.00
2019-01-24T20:34:06.379Z,4.00
2019-01-24T20:39:11.163Z,4.00
2019-01-24T20:44:15.889Z,4.00
2019-01-24T20:49:20.579Z,4.00
2019-01-24T20:54:25.184Z,4.00
2019-01-24T20:59:30.006Z,4.00
2019-01-24T21:04:34.628Z,4.00
2019-01-24T21:09:39.312Z,4.10
2019-01-24T21:14:43.925Z,4.10
2019-01-24T21:19:48.781Z,4.10
2019-01-24T21:24:53.454Z,4.10
2019-01-24T21:29:58.214Z,4.10
2019-01-24T21:35:02.849Z,4.10
2019-01-24T21:40:09.048Z,4.10
2019-01-24T21:45:21.977Z,4.10
2019-01-24T21:50:27.621Z,4.10
2019-01-24T21:55:32.292Z,4.10
2019-01-24T22:00:37.034Z,4.20
2019-01-24T22:05:41.814Z,4.20
2019-01-24T22:10:46.469Z,4.10
2019-01-24T22:15:51.121Z,4.10
2019-01-24T22:20:55.936Z,4.10
2019-01-24T22:26:00.553Z,4.10
2019-01-24T22:31:05.390Z,4.10
2019-01-24T22:36:09.993Z,4.00
2019-01-24T22:41:14.648Z,4.00
2019-01-24T22:46:19.331Z,4.00
2019-01-24T22:51:24.083Z,4.00
2019-01-24T22:56:35.208Z,4.00
2019-01-24T23:01:43.914Z,3.90
2019-01-24T23:06:48.525Z,3.90
2019-01-24T23:11:53.251Z,3.80
2019-01-24T23:16:57.947Z,3.80
2019-01-24T23:22:02.563Z,3.80
2019-01-24T23:27:07.170Z,3.70
2019-01-24T23:32:11.781Z,3.50
2019-01-24T23:37:16.297Z,3.50
2019-01-24T23:42:20.945Z,3.40
2019-01-24T23:47:25.641Z,3.30
2019-01-24T23:52:30.267Z,3.20
2019-01-24T23:57:34.920Z,3.20
